sensor_id;sensor_type;location;lat;lon;timestamp;P1;durP1;ratioP1;P2;durP2;ratioP2
12363;SDS011;6246;50.826;4.712;2022-12-31T00:00:59;11.97;;;8.73;;
12363;SDS011;6246;50.826;4.712;2022-12-31T00:03:25;13.63;;;9.53;;
12363;SDS011;6246;50.826;4.712;2022-12-31T00:05:51;13.53;;;9.37;;
12363;SDS011;6246;50.826;4.712;2022-12-31T00:08:17;15.97;;;9.57;;
12363;SDS011;6246;50.826;4.712;2022-12-31T00:10:44;13.80;;;9.27;;
12363;SDS011;6246;50.826;4.712;2022-12-31T00:13:10;13.33;;;9.23;;
12363;SDS011;6246;50.826;4.712;2022-12-31T00:15:37;10.23;;;8.00;;
12363;SDS011;6246;50.826;4.712;2022-12-31T00:18:03;13.10;;;9.23;;
12363;SDS011;6246;50.826;4.712;2022-12-31T00:20:29;11.43;;;8.50;;
12363;SDS011;6246;50.826;4.712;2022-12-31T00:22:56;11.80;;;9.53;;
12363;SDS011;6246;50.826;4.712;2022-12-31T00:25:22;11.60;;;8.90;;
12363;SDS011;6246;50.826;4.712;2022-12-31T00:27:48;11.67;;;8.90;;
12363;SDS011;6246;50.826;4.712;2022-12-31T00:30:14;11.93;;;9.50;;
12363;SDS011;6246;50.826;4.712;2022-12-31T00:32:40;12.07;;;9.20;;
12363;SDS011;6246;50.826;4.712;2022-12-31T00:35:06;10.77;;;8.90;;
12363;SDS011;6246;50.826;4.712;2022-12-31T00:37:32;12.13;;;9.10;;
12363;SDS011;6246;50.826;4.712;2022-12-31T00:39:58;13.73;;;9.40;;
12363;SDS011;6246;50.826;4.712;2022-12-31T00:42:24;13.37;;;9.27;;
12363;SDS011;6246;50.826;4.712;2022-12-31T00:44:50;10.57;;;8.47;;
12363;SDS011;6246;50.826;4.712;2022-12-31T00:47:16;12.83;;;9.00;;
12363;SDS011;6246;50.826;4.712;2022-12-31T00:49:42;10.17;;;8.50;;
12363;SDS011;6246;50.826;4.712;2022-12-31T00:52:08;11.60;;;9.57;;
12363;SDS011;6246;50.826;4.712;2022-12-31T00:54:37;12.90;;;8.93;;
12363;SDS011;6246;50.826;4.712;2022-12-31T00:57:03;10.10;;;8.23;;
12363;SDS011;6246;50.826;4.712;2022-12-31T00:59:29;12.83;;;8.97;;
12363;SDS011;6246;50.826;4.712;2022-12-31T01:01:55;16.80;;;9.00;;
12363;SDS011;6246;50.826;4.712;2022-12-31T01:04:21;16.40;;;8.87;;
12363;SDS011;6246;50.826;4.712;2022-12-31T01:06:47;15.30;;;8.43;;
12363;SDS011;6246;50.826;4.712;2022-12-31T01:09:14;14.47;;;7.97;;
12363;SDS011;6246;50.826;4.712;2022-12-31T01:11:40;13.17;;;8.83;;
12363;SDS011;6246;50.826;4.712;2022-12-31T01:14:08;12.57;;;8.43;;
12363;SDS011;6246;50.826;4.712;2022-12-31T01:16:38;10.67;;;7.43;;
12363;SDS011;6246;50.826;4.712;2022-12-31T01:19:06;9.97;;;8.03;;
12363;SDS011;6246;50.826;4.712;2022-12-31T01:21:32;13.53;;;8.13;;
12363;SDS011;6246;50.826;4.712;2022-12-31T01:23:59;21.47;;;5.60;;
12363;SDS011;6246;50.826;4.712;2022-12-31T01:26:25;15.20;;;7.43;;
12363;SDS011;6246;50.826;4.712;2022-12-31T01:28:51;13.17;;;7.20;;
12363;SDS011;6246;50.826;4.712;2022-12-31T01:31:18;13.17;;;6.03;;
12363;SDS011;6246;50.826;4.712;2022-12-31T01:33:44;11.33;;;6.87;;
12363;SDS011;6246;50.826;4.712;2022-12-31T01:36:12;15.90;;;7.10;;
12363;SDS011;6246;50.826;4.712;2022-12-31T01:38:39;13.17;;;6.60;;
12363;SDS011;6246;50.826;4.712;2022-12-31T01:41:05;8.10;;;6.23;;
12363;SDS011;6246;50.826;4.712;2022-12-31T01:43:47;12.63;;;6.90;;
12363;SDS011;6246;50.826;4.712;2022-12-31T01:48:52;9.93;;;6.50;;
12363;SDS011;6246;50.826;4.712;2022-12-31T01:51:20;8.77;;;5.80;;
12363;SDS011;6246;50.826;4.712;2022-12-31T01:53:47;8.67;;;6.37;;
12363;SDS011;6246;50.826;4.712;2022-12-31T01:56:13;9.73;;;6.43;;
12363;SDS011;6246;50.826;4.712;2022-12-31T01:58:41;16.25;;;6.30;;
12363;SDS011;6246;50.826;4.712;2022-12-31T02:01:08;8.67;;;5.47;;
12363;SDS011;6246;50.826;4.712;2022-12-31T02:03:36;7.15;;;5.63;;
12363;SDS011;6246;50.826;4.712;2022-12-31T02:06:07;7.67;;;5.90;;
12363;SDS011;6246;50.826;4.712;2022-12-31T02:08:35;8.27;;;5.40;;
12363;SDS011;6246;50.826;4.712;2022-12-31T02:11:16;8.25;;;5.40;;
12363;SDS011;6246;50.826;4.712;2022-12-31T02:13:43;7.17;;;5.00;;
12363;SDS011;6246;50.826;4.712;2022-12-31T02:16:14;8.67;;;5.43;;
12363;SDS011;6246;50.826;4.712;2022-12-31T02:18:43;6.67;;;5.03;;
12363;SDS011;6246;50.826;4.712;2022-12-31T02:21:29;6.57;;;5.47;;
12363;SDS011;6246;50.826;4.712;2022-12-31T02:24:16;7.90;;;5.67;;
12363;SDS011;6246;50.826;4.712;2022-12-31T02:29:21;16.13;;;5.30;;
12363;SDS011;6246;50.826;4.712;2022-12-31T02:31:59;8.20;;;4.50;;
12363;SDS011;6246;50.826;4.712;2022-12-31T02:34:36;6.47;;;4.80;;
12363;SDS011;6246;50.826;4.712;2022-12-31T02:37:07;5.47;;;4.67;;
12363;SDS011;6246;50.826;4.712;2022-12-31T02:39:35;6.63;;;5.07;;
12363;SDS011;6246;50.826;4.712;2022-12-31T02:42:01;6.40;;;4.73;;
12363;SDS011;6246;50.826;4.712;2022-12-31T02:44:34;7.10;;;5.20;;
12363;SDS011;6246;50.826;4.712;2022-12-31T02:49:49;5.97;;;4.80;;
12363;SDS011;6246;50.826;4.712;2022-12-31T02:52:20;6.60;;;5.33;;
12363;SDS011;6246;50.826;4.712;2022-12-31T02:59:56;6.57;;;5.30;;
12363;SDS011;6246;50.826;4.712;2022-12-31T03:02:42;7.67;;;5.50;;
12363;SDS011;6246;50.826;4.712;2022-12-31T03:05:10;7.17;;;5.07;;
12363;SDS011;6246;50.826;4.712;2022-12-31T03:07:38;5.80;;;5.20;;
12363;SDS011;6246;50.826;4.712;2022-12-31T03:10:04;5.40;;;4.90;;
12363;SDS011;6246;50.826;4.712;2022-12-31T03:12:31;5.90;;;5.00;;
12363;SDS011;6246;50.826;4.712;2022-12-31T03:15:21;5.90;;;5.13;;
12363;SDS011;6246;50.826;4.712;2022-12-31T03:18:06;7.00;;;6.00;;
12363;SDS011;6246;50.826;4.712;2022-12-31T03:20:33;6.63;;;5.30;;
12363;SDS011;6246;50.826;4.712;2022-12-31T03:23:20;6.03;;;5.43;;
12363;SDS011;6246;50.826;4.712;2022-12-31T03:25:46;9.13;;;5.57;;
12363;SDS011;6246;50.826;4.712;2022-12-31T03:28:14;6.27;;;5.23;;
12363;SDS011;6246;50.826;4.712;2022-12-31T03:30:41;6.33;;;5.13;;
12363;SDS011;6246;50.826;4.712;2022-12-31T03:33:08;9.77;;;5.70;;
12363;SDS011;6246;50.826;4.712;2022-12-31T03:35:34;7.37;;;5.33;;
12363;SDS011;6246;50.826;4.712;2022-12-31T03:38:01;7.43;;;5.43;;
12363;SDS011;6246;50.826;4.712;2022-12-31T03:40:27;6.97;;;5.00;;
12363;SDS011;6246;50.826;4.712;2022-12-31T03:42:54;5.40;;;4.87;;
12363;SDS011;6246;50.826;4.712;2022-12-31T03:45:20;6.87;;;5.20;;
12363;SDS011;6246;50.826;4.712;2022-12-31T03:47:46;6.30;;;5.00;;
12363;SDS011;6246;50.826;4.712;2022-12-31T03:50:13;7.77;;;5.53;;
12363;SDS011;6246;50.826;4.712;2022-12-31T03:52:40;6.50;;;4.90;;
12363;SDS011;6246;50.826;4.712;2022-12-31T03:55:06;8.13;;;5.30;;
12363;SDS011;6246;50.826;4.712;2022-12-31T03:57:32;6.00;;;4.87;;
12363;SDS011;6246;50.826;4.712;2022-12-31T03:59:58;6.57;;;4.80;;
12363;SDS011;6246;50.826;4.712;2022-12-31T04:02:24;6.43;;;5.00;;
12363;SDS011;6246;50.826;4.712;2022-12-31T04:04:50;10.20;;;5.40;;
12363;SDS011;6246;50.826;4.712;2022-12-31T04:07:16;5.87;;;4.73;;
12363;SDS011;6246;50.826;4.712;2022-12-31T04:09:42;7.10;;;4.63;;
12363;SDS011;6246;50.826;4.712;2022-12-31T04:12:08;6.00;;;4.33;;
12363;SDS011;6246;50.826;4.712;2022-12-31T04:14:34;8.13;;;4.53;;
12363;SDS011;6246;50.826;4.712;2022-12-31T04:17:00;5.13;;;4.47;;
12363;SDS011;6246;50.826;4.712;2022-12-31T04:19:26;7.63;;;4.40;;
12363;SDS011;6246;50.826;4.712;2022-12-31T04:21:52;5.10;;;4.50;;
12363;SDS011;6246;50.826;4.712;2022-12-31T04:24:18;6.27;;;4.13;;
12363;SDS011;6246;50.826;4.712;2022-12-31T04:26:44;5.90;;;4.80;;
12363;SDS011;6246;50.826;4.712;2022-12-31T04:29:10;7.23;;;5.00;;
12363;SDS011;6246;50.826;4.712;2022-12-31T04:31:36;7.50;;;5.10;;
12363;SDS011;6246;50.826;4.712;2022-12-31T04:34:02;7.33;;;5.00;;
12363;SDS011;6246;50.826;4.712;2022-12-31T04:36:28;6.70;;;4.83;;
12363;SDS011;6246;50.826;4.712;2022-12-31T04:38:54;10.37;;;5.60;;
12363;SDS011;6246;50.826;4.712;2022-12-31T04:41:21;7.57;;;4.93;;
12363;SDS011;6246;50.826;4.712;2022-12-31T04:43:55;7.20;;;5.30;;
12363;SDS011;6246;50.826;4.712;2022-12-31T04:46:25;8.13;;;6.00;;
12363;SDS011;6246;50.826;4.712;2022-12-31T04:48:51;7.50;;;5.60;;
12363;SDS011;6246;50.826;4.712;2022-12-31T04:51:17;7.40;;;5.90;;
12363;SDS011;6246;50.826;4.712;2022-12-31T04:53:44;7.67;;;5.60;;
12363;SDS011;6246;50.826;4.712;2022-12-31T04:56:10;7.93;;;5.77;;
12363;SDS011;6246;50.826;4.712;2022-12-31T04:58:36;8.13;;;6.30;;
12363;SDS011;6246;50.826;4.712;2022-12-31T05:01:02;8.00;;;6.10;;
12363;SDS011;6246;50.826;4.712;2022-12-31T05:03:28;8.23;;;6.60;;
12363;SDS011;6246;50.826;4.712;2022-12-31T05:06:02;10.73;;;6.07;;
12363;SDS011;6246;50.826;4.712;2022-12-31T05:08:28;8.40;;;6.53;;
12363;SDS011;6246;50.826;4.712;2022-12-31T05:10:54;7.17;;;5.77;;
12363;SDS011;6246;50.826;4.712;2022-12-31T05:13:20;9.60;;;5.63;;
12363;SDS011;6246;50.826;4.712;2022-12-31T05:15:47;9.63;;;6.07;;
12363;SDS011;6246;50.826;4.712;2022-12-31T05:18:13;7.20;;;5.27;;
12363;SDS011;6246;50.826;4.712;2022-12-31T05:20:39;7.47;;;6.00;;
12363;SDS011;6246;50.826;4.712;2022-12-31T05:23:05;7.10;;;5.67;;
12363;SDS011;6246;50.826;4.712;2022-12-31T05:25:31;8.90;;;6.73;;
12363;SDS011;6246;50.826;4.712;2022-12-31T05:27:57;8.30;;;6.23;;
12363;SDS011;6246;50.826;4.712;2022-12-31T05:30:23;8.33;;;6.03;;
12363;SDS011;6246;50.826;4.712;2022-12-31T05:32:49;7.30;;;5.87;;
12363;SDS011;6246;50.826;4.712;2022-12-31T05:35:15;7.23;;;6.23;;
12363;SDS011;6246;50.826;4.712;2022-12-31T05:37:42;8.03;;;6.07;;
12363;SDS011;6246;50.826;4.712;2022-12-31T05:40:08;7.90;;;6.20;;
12363;SDS011;6246;50.826;4.712;2022-12-31T05:42:34;6.67;;;5.80;;
12363;SDS011;6246;50.826;4.712;2022-12-31T05:45:00;6.63;;;5.57;;
12363;SDS011;6246;50.826;4.712;2022-12-31T05:47:26;6.47;;;5.37;;
12363;SDS011;6246;50.826;4.712;2022-12-31T05:49:52;7.50;;;5.73;;
12363;SDS011;6246;50.826;4.712;2022-12-31T05:52:19;7.37;;;5.57;;
12363;SDS011;6246;50.826;4.712;2022-12-31T05:54:45;6.43;;;5.20;;
12363;SDS011;6246;50.826;4.712;2022-12-31T05:57:11;6.80;;;5.00;;
12363;SDS011;6246;50.826;4.712;2022-12-31T05:59:37;6.17;;;5.50;;
12363;SDS011;6246;50.826;4.712;2022-12-31T06:02:03;7.20;;;5.27;;
12363;SDS011;6246;50.826;4.712;2022-12-31T06:04:29;6.70;;;5.00;;
12363;SDS011;6246;50.826;4.712;2022-12-31T06:06:56;7.47;;;5.07;;
12363;SDS011;6246;50.826;4.712;2022-12-31T06:09:22;6.13;;;4.83;;
12363;SDS011;6246;50.826;4.712;2022-12-31T06:11:48;6.57;;;5.20;;
12363;SDS011;6246;50.826;4.712;2022-12-31T06:14:14;6.83;;;5.27;;
12363;SDS011;6246;50.826;4.712;2022-12-31T06:16:40;6.73;;;5.37;;
12363;SDS011;6246;50.826;4.712;2022-12-31T06:19:07;5.13;;;4.63;;
12363;SDS011;6246;50.826;4.712;2022-12-31T06:21:33;6.53;;;5.20;;
12363;SDS011;6246;50.826;4.712;2022-12-31T06:23:59;5.73;;;5.03;;
12363;SDS011;6246;50.826;4.712;2022-12-31T06:26:26;5.00;;;4.50;;
12363;SDS011;6246;50.826;4.712;2022-12-31T06:28:52;5.70;;;4.90;;
12363;SDS011;6246;50.826;4.712;2022-12-31T06:31:18;6.77;;;5.03;;
12363;SDS011;6246;50.826;4.712;2022-12-31T06:33:44;5.57;;;4.80;;
12363;SDS011;6246;50.826;4.712;2022-12-31T06:36:12;5.30;;;4.73;;
12363;SDS011;6246;50.826;4.712;2022-12-31T06:38:38;5.70;;;4.70;;
12363;SDS011;6246;50.826;4.712;2022-12-31T06:41:05;7.83;;;4.90;;
12363;SDS011;6246;50.826;4.712;2022-12-31T06:43:33;5.57;;;4.17;;
12363;SDS011;6246;50.826;4.712;2022-12-31T06:45:59;5.00;;;4.30;;
12363;SDS011;6246;50.826;4.712;2022-12-31T06:48:25;5.77;;;4.47;;
12363;SDS011;6246;50.826;4.712;2022-12-31T06:50:51;4.93;;;4.43;;
12363;SDS011;6246;50.826;4.712;2022-12-31T06:53:17;5.70;;;4.23;;
12363;SDS011;6246;50.826;4.712;2022-12-31T06:55:47;5.23;;;4.33;;
12363;SDS011;6246;50.826;4.712;2022-12-31T06:58:14;4.97;;;4.20;;
12363;SDS011;6246;50.826;4.712;2022-12-31T07:00:41;4.73;;;4.07;;
12363;SDS011;6246;50.826;4.712;2022-12-31T07:05:52;5.47;;;4.30;;
12363;SDS011;6246;50.826;4.712;2022-12-31T07:16:08;4.70;;;3.77;;
12363;SDS011;6246;50.826;4.712;2022-12-31T07:21:12;4.00;;;3.70;;
12363;SDS011;6246;50.826;4.712;2022-12-31T07:23:39;5.17;;;3.80;;
12363;SDS011;6246;50.826;4.712;2022-12-31T07:26:07;4.23;;;3.80;;
12363;SDS011;6246;50.826;4.712;2022-12-31T07:34:04;4.00;;;3.57;;
12363;SDS011;6246;50.826;4.712;2022-12-31T07:39:07;4.93;;;3.30;;
12363;SDS011;6246;50.826;4.712;2022-12-31T07:44:02;4.43;;;3.30;;
12363;SDS011;6246;50.826;4.712;2022-12-31T07:46:40;3.63;;;3.33;;
12363;SDS011;6246;50.826;4.712;2022-12-31T07:49:12;3.67;;;3.07;;
12363;SDS011;6246;50.826;4.712;2022-12-31T07:51:38;3.07;;;2.87;;
12363;SDS011;6246;50.826;4.712;2022-12-31T07:54:05;4.00;;;3.37;;
12363;SDS011;6246;50.826;4.712;2022-12-31T07:56:31;4.23;;;3.37;;
12363;SDS011;6246;50.826;4.712;2022-12-31T07:59:00;2.83;;;2.63;;
12363;SDS011;6246;50.826;4.712;2022-12-31T08:11:54;3.40;;;3.10;;
12363;SDS011;6246;50.826;4.712;2022-12-31T08:14:21;3.73;;;2.77;;
12363;SDS011;6246;50.826;4.712;2022-12-31T08:16:47;3.73;;;2.83;;
12363;SDS011;6246;50.826;4.712;2022-12-31T08:19:34;2.80;;;2.50;;
12363;SDS011;6246;50.826;4.712;2022-12-31T08:27:07;5.17;;;3.40;;
12363;SDS011;6246;50.826;4.712;2022-12-31T08:32:08;3.87;;;2.73;;
12363;SDS011;6246;50.826;4.712;2022-12-31T08:34:44;4.20;;;2.60;;
12363;SDS011;6246;50.826;4.712;2022-12-31T08:37:15;3.10;;;2.70;;
12363;SDS011;6246;50.826;4.712;2022-12-31T08:40:05;2.80;;;2.60;;
12363;SDS011;6246;50.826;4.712;2022-12-31T08:42:39;4.20;;;2.70;;
12363;SDS011;6246;50.826;4.712;2022-12-31T08:45:16;2.57;;;2.37;;
12363;SDS011;6246;50.826;4.712;2022-12-31T08:50:13;3.27;;;2.80;;
12363;SDS011;6246;50.826;4.712;2022-12-31T08:52:39;3.57;;;2.60;;
12363;SDS011;6246;50.826;4.712;2022-12-31T08:55:05;4.53;;;2.50;;
12363;SDS011;6246;50.826;4.712;2022-12-31T08:58:05;3.97;;;2.73;;
12363;SDS011;6246;50.826;4.712;2022-12-31T09:00:23;3.87;;;2.37;;
12363;SDS011;6246;50.826;4.712;2022-12-31T09:11:00;4.17;;;2.40;;
12363;SDS011;6246;50.826;4.712;2022-12-31T09:16:16;4.17;;;2.73;;
12363;SDS011;6246;50.826;4.712;2022-12-31T09:18:43;2.53;;;2.17;;
12363;SDS011;6246;50.826;4.712;2022-12-31T09:21:10;3.63;;;2.20;;
12363;SDS011;6246;50.826;4.712;2022-12-31T09:23:37;2.83;;;2.00;;
12363;SDS011;6246;50.826;4.712;2022-12-31T09:28:52;4.00;;;2.40;;
12363;SDS011;6246;50.826;4.712;2022-12-31T09:36:30;3.90;;;2.40;;
12363;SDS011;6246;50.826;4.712;2022-12-31T09:39:02;3.90;;;2.00;;
12363;SDS011;6246;50.826;4.712;2022-12-31T09:52:12;2.03;;;1.83;;
12363;SDS011;6246;50.826;4.712;2022-12-31T09:57:11;3.13;;;1.93;;
12363;SDS011;6246;50.826;4.712;2022-12-31T09:59:53;2.97;;;1.90;;
12363;SDS011;6246;50.826;4.712;2022-12-31T10:05:17;2.77;;;2.03;;
12363;SDS011;6246;50.826;4.712;2022-12-31T10:13:37;2.00;;;1.80;;
12363;SDS011;6246;50.826;4.712;2022-12-31T10:28:58;3.50;;;1.47;;
12363;SDS011;6246;50.826;4.712;2022-12-31T10:31:30;2.63;;;1.37;;
12363;SDS011;6246;50.826;4.712;2022-12-31T10:36:54;1.87;;;1.27;;
12363;SDS011;6246;50.826;4.712;2022-12-31T10:39:26;4.13;;;1.80;;
12363;SDS011;6246;50.826;4.712;2022-12-31T10:42:09;1.60;;;1.50;;
12363;SDS011;6246;50.826;4.712;2022-12-31T11:16:39;5.00;;;1.47;;
12363;SDS011;6246;50.826;4.712;2022-12-31T11:19:13;2.00;;;1.20;;
12363;SDS011;6246;50.826;4.712;2022-12-31T11:35:11;2.27;;;1.10;;
12363;SDS011;6246;50.826;4.712;2022-12-31T11:37:50;1.50;;;1.33;;
12363;SDS011;6246;50.826;4.712;2022-12-31T11:45:23;2.20;;;1.70;;
12363;SDS011;6246;50.826;4.712;2022-12-31T11:47:56;2.17;;;1.37;;
12363;SDS011;6246;50.826;4.712;2022-12-31T11:50:27;3.47;;;1.40;;
12363;SDS011;6246;50.826;4.712;2022-12-31T11:53:09;2.53;;;1.50;;
12363;SDS011;6246;50.826;4.712;2022-12-31T11:55:42;3.67;;;1.40;;
12363;SDS011;6246;50.826;4.712;2022-12-31T11:58:20;1.13;;;0.90;;
12363;SDS011;6246;50.826;4.712;2022-12-31T12:00:58;1.33;;;1.10;;
12363;SDS011;6246;50.826;4.712;2022-12-31T12:03:24;3.73;;;1.57;;
12363;SDS011;6246;50.826;4.712;2022-12-31T12:05:51;1.83;;;1.03;;
12363;SDS011;6246;50.826;4.712;2022-12-31T12:08:17;3.53;;;1.77;;
12363;SDS011;6246;50.826;4.712;2022-12-31T12:10:44;3.67;;;1.30;;
12363;SDS011;6246;50.826;4.712;2022-12-31T12:13:13;5.03;;;1.40;;
12363;SDS011;6246;50.826;4.712;2022-12-31T12:15:40;1.20;;;1.00;;
12363;SDS011;6246;50.826;4.712;2022-12-31T12:18:08;2.67;;;1.37;;
12363;SDS011;6246;50.826;4.712;2022-12-31T12:20:36;3.10;;;1.37;;
12363;SDS011;6246;50.826;4.712;2022-12-31T12:23:16;3.37;;;1.40;;
12363;SDS011;6246;50.826;4.712;2022-12-31T12:25:42;2.67;;;1.53;;
12363;SDS011;6246;50.826;4.712;2022-12-31T12:28:22;1.70;;;1.00;;
12363;SDS011;6246;50.826;4.712;2022-12-31T12:30:55;1.90;;;1.23;;
12363;SDS011;6246;50.826;4.712;2022-12-31T12:33:22;2.00;;;1.50;;
12363;SDS011;6246;50.826;4.712;2022-12-31T12:35:48;1.60;;;1.17;;
12363;SDS011;6246;50.826;4.712;2022-12-31T12:38:18;2.30;;;1.27;;
12363;SDS011;6246;50.826;4.712;2022-12-31T12:40:58;3.00;;;1.50;;
12363;SDS011;6246;50.826;4.712;2022-12-31T12:43:29;2.57;;;1.23;;
12363;SDS011;6246;50.826;4.712;2022-12-31T12:45:59;2.10;;;1.20;;
12363;SDS011;6246;50.826;4.712;2022-12-31T12:48:39;3.40;;;1.30;;
12363;SDS011;6246;50.826;4.712;2022-12-31T13:01:46;2.37;;;1.27;;
12363;SDS011;6246;50.826;4.712;2022-12-31T13:06:51;2.93;;;1.40;;
12363;SDS011;6246;50.826;4.712;2022-12-31T13:09:24;2.93;;;1.20;;
12363;SDS011;6246;50.826;4.712;2022-12-31T13:14:26;2.33;;;1.30;;
12363;SDS011;6246;50.826;4.712;2022-12-31T13:22:24;4.20;;;1.27;;
12363;SDS011;6246;50.826;4.712;2022-12-31T13:27:33;4.73;;;1.30;;
12363;SDS011;6246;50.826;4.712;2022-12-31T13:30:00;5.77;;;1.70;;
12363;SDS011;6246;50.826;4.712;2022-12-31T13:32:31;5.27;;;1.63;;
12363;SDS011;6246;50.826;4.712;2022-12-31T13:34:59;4.03;;;1.70;;
12363;SDS011;6246;50.826;4.712;2022-12-31T13:37:32;5.20;;;2.03;;
12363;SDS011;6246;50.826;4.712;2022-12-31T13:40:05;7.13;;;1.87;;
12363;SDS011;6246;50.826;4.712;2022-12-31T13:42:45;8.40;;;1.53;;
12363;SDS011;6246;50.826;4.712;2022-12-31T13:45:15;6.67;;;1.90;;
12363;SDS011;6246;50.826;4.712;2022-12-31T13:47:45;5.83;;;1.67;;
12363;SDS011;6246;50.826;4.712;2022-12-31T13:50:15;8.17;;;1.50;;
12363;SDS011;6246;50.826;4.712;2022-12-31T13:52:48;7.40;;;1.90;;
12363;SDS011;6246;50.826;4.712;2022-12-31T13:55:17;2.93;;;2.03;;
12363;SDS011;6246;50.826;4.712;2022-12-31T13:57:52;2.53;;;1.83;;
12363;SDS011;6246;50.826;4.712;2022-12-31T14:07:57;5.93;;;2.83;;
12363;SDS011;6246;50.826;4.712;2022-12-31T14:10:27;7.03;;;2.17;;
12363;SDS011;6246;50.826;4.712;2022-12-31T14:13:14;5.97;;;2.63;;
12363;SDS011;6246;50.826;4.712;2022-12-31T14:15:58;3.37;;;2.87;;
12363;SDS011;6246;50.826;4.712;2022-12-31T14:20:56;7.77;;;3.40;;
12363;SDS011;6246;50.826;4.712;2022-12-31T14:26:05;7.40;;;3.17;;
12363;SDS011;6246;50.826;4.712;2022-12-31T14:28:38;7.73;;;4.10;;
12363;SDS011;6246;50.826;4.712;2022-12-31T14:31:43;7.43;;;3.57;;
12363;SDS011;6246;50.826;4.712;2022-12-31T14:34:01;5.33;;;3.70;;
12363;SDS011;6246;50.826;4.712;2022-12-31T14:36:39;7.80;;;3.70;;
12363;SDS011;6246;50.826;4.712;2022-12-31T14:39:12;9.87;;;4.00;;
12363;SDS011;6246;50.826;4.712;2022-12-31T14:52:45;6.10;;;4.43;;
12363;SDS011;6246;50.826;4.712;2022-12-31T14:57:39;10.03;;;4.57;;
12363;SDS011;6246;50.826;4.712;2022-12-31T15:05:48;7.43;;;4.93;;
12363;SDS011;6246;50.826;4.712;2022-12-31T15:21:32;13.30;;;5.80;;
12363;SDS011;6246;50.826;4.712;2022-12-31T15:24:01;14.83;;;5.67;;
12363;SDS011;6246;50.826;4.712;2022-12-31T15:26:37;17.27;;;6.80;;
12363;SDS011;6246;50.826;4.712;2022-12-31T15:29:44;15.07;;;5.97;;
12363;SDS011;6246;50.826;4.712;2022-12-31T15:32:03;16.60;;;6.07;;
12363;SDS011;6246;50.826;4.712;2022-12-31T15:34:30;24.80;;;7.83;;
12363;SDS011;6246;50.826;4.712;2022-12-31T15:36:58;20.10;;;8.73;;
12363;SDS011;6246;50.826;4.712;2022-12-31T15:41:58;11.40;;;8.03;;
12363;SDS011;6246;50.826;4.712;2022-12-31T15:46:58;12.50;;;7.20;;
12363;SDS011;6246;50.826;4.712;2022-12-31T15:49:26;13.93;;;7.77;;
12363;SDS011;6246;50.826;4.712;2022-12-31T15:52:02;13.33;;;7.53;;
12363;SDS011;6246;50.826;4.712;2022-12-31T15:56:55;24.83;;;7.87;;
12363;SDS011;6246;50.826;4.712;2022-12-31T15:59:22;17.13;;;7.73;;
12363;SDS011;6246;50.826;4.712;2022-12-31T16:01:50;21.83;;;7.33;;
12363;SDS011;6246;50.826;4.712;2022-12-31T16:04:17;14.77;;;7.60;;
12363;SDS011;6246;50.826;4.712;2022-12-31T16:06:44;15.70;;;6.87;;
12363;SDS011;6246;50.826;4.712;2022-12-31T16:09:45;16.87;;;7.27;;
12363;SDS011;6246;50.826;4.712;2022-12-31T16:12:07;16.03;;;7.27;;
12363;SDS011;6246;50.826;4.712;2022-12-31T16:14:44;18.33;;;7.77;;
12363;SDS011;6246;50.826;4.712;2022-12-31T16:17:32;16.70;;;7.57;;
12363;SDS011;6246;50.826;4.712;2022-12-31T16:19:57;16.63;;;7.87;;
12363;SDS011;6246;50.826;4.712;2022-12-31T16:22:26;16.33;;;8.00;;
12363;SDS011;6246;50.826;4.712;2022-12-31T16:24:54;18.30;;;8.40;;
12363;SDS011;6246;50.826;4.712;2022-12-31T16:27:20;17.90;;;8.03;;
12363;SDS011;6246;50.826;4.712;2022-12-31T16:29:48;18.83;;;9.13;;
12363;SDS011;6246;50.826;4.712;2022-12-31T16:32:16;16.93;;;8.83;;
12363;SDS011;6246;50.826;4.712;2022-12-31T16:34:42;15.63;;;8.70;;
12363;SDS011;6246;50.826;4.712;2022-12-31T16:37:16;17.60;;;8.67;;
12363;SDS011;6246;50.826;4.712;2022-12-31T16:42:29;13.50;;;8.90;;
12363;SDS011;6246;50.826;4.712;2022-12-31T16:44:56;15.10;;;8.93;;
12363;SDS011;6246;50.826;4.712;2022-12-31T16:47:23;20.40;;;9.47;;
12363;SDS011;6246;50.826;4.712;2022-12-31T16:53:00;16.13;;;8.90;;
12363;SDS011;6246;50.826;4.712;2022-12-31T16:55:28;13.53;;;8.77;;
12363;SDS011;6246;50.826;4.712;2022-12-31T16:58:03;13.27;;;9.30;;
12363;SDS011;6246;50.826;4.712;2022-12-31T17:00:32;13.43;;;9.20;;
12363;SDS011;6246;50.826;4.712;2022-12-31T17:03:04;14.20;;;8.67;;
12363;SDS011;6246;50.826;4.712;2022-12-31T17:05:33;16.73;;;9.43;;
12363;SDS011;6246;50.826;4.712;2022-12-31T17:11:16;14.63;;;9.30;;
12363;SDS011;6246;50.826;4.712;2022-12-31T17:13:42;16.33;;;9.00;;
12363;SDS011;6246;50.826;4.712;2022-12-31T17:16:08;16.83;;;9.53;;
12363;SDS011;6246;50.826;4.712;2022-12-31T17:18:34;17.93;;;9.90;;
12363;SDS011;6246;50.826;4.712;2022-12-31T17:21:05;14.90;;;9.03;;
12363;SDS011;6246;50.826;4.712;2022-12-31T17:23:32;16.43;;;9.67;;
12363;SDS011;6246;50.826;4.712;2022-12-31T17:26:06;14.90;;;8.90;;
12363;SDS011;6246;50.826;4.712;2022-12-31T17:28:41;13.57;;;9.17;;
12363;SDS011;6246;50.826;4.712;2022-12-31T17:31:24;15.40;;;9.70;;
12363;SDS011;6246;50.826;4.712;2022-12-31T17:33:54;13.33;;;9.33;;
12363;SDS011;6246;50.826;4.712;2022-12-31T17:36:28;11.93;;;8.50;;
12363;SDS011;6246;50.826;4.712;2022-12-31T17:38:54;13.33;;;8.83;;
12363;SDS011;6246;50.826;4.712;2022-12-31T17:41:22;14.00;;;9.27;;
12363;SDS011;6246;50.826;4.712;2022-12-31T17:43:52;11.93;;;8.77;;
12363;SDS011;6246;50.826;4.712;2022-12-31T17:46:19;19.67;;;9.80;;
12363;SDS011;6246;50.826;4.712;2022-12-31T17:48:48;14.10;;;9.43;;
12363;SDS011;6246;50.826;4.712;2022-12-31T17:51:14;14.43;;;8.90;;
12363;SDS011;6246;50.826;4.712;2022-12-31T17:53:40;13.93;;;9.43;;
12363;SDS011;6246;50.826;4.712;2022-12-31T17:56:07;18.93;;;10.13;;
12363;SDS011;6246;50.826;4.712;2022-12-31T17:58:45;17.43;;;10.13;;
12363;SDS011;6246;50.826;4.712;2022-12-31T18:01:13;11.77;;;9.20;;
12363;SDS011;6246;50.826;4.712;2022-12-31T18:03:39;16.00;;;9.10;;
12363;SDS011;6246;50.826;4.712;2022-12-31T18:06:07;13.20;;;8.63;;
12363;SDS011;6246;50.826;4.712;2022-12-31T18:08:33;13.03;;;9.23;;
12363;SDS011;6246;50.826;4.712;2022-12-31T18:10:59;19.67;;;10.47;;
12363;SDS011;6246;50.826;4.712;2022-12-31T18:13:25;16.00;;;10.97;;
12363;SDS011;6246;50.826;4.712;2022-12-31T18:15:52;17.03;;;10.17;;
12363;SDS011;6246;50.826;4.712;2022-12-31T18:18:19;13.93;;;9.90;;
12363;SDS011;6246;50.826;4.712;2022-12-31T18:20:46;15.57;;;9.97;;
12363;SDS011;6246;50.826;4.712;2022-12-31T18:23:16;17.20;;;9.47;;
12363;SDS011;6246;50.826;4.712;2022-12-31T18:25:42;13.33;;;9.50;;
12363;SDS011;6246;50.826;4.712;2022-12-31T18:28:08;15.80;;;9.43;;
12363;SDS011;6246;50.826;4.712;2022-12-31T18:30:35;15.80;;;9.70;;
12363;SDS011;6246;50.826;4.712;2022-12-31T18:33:02;13.57;;;9.60;;
12363;SDS011;6246;50.826;4.712;2022-12-31T18:35:30;14.83;;;9.27;;
12363;SDS011;6246;50.826;4.712;2022-12-31T18:37:56;14.23;;;10.00;;
12363;SDS011;6246;50.826;4.712;2022-12-31T18:40:23;11.87;;;9.57;;
12363;SDS011;6246;50.826;4.712;2022-12-31T18:42:49;12.80;;;9.30;;
12363;SDS011;6246;50.826;4.712;2022-12-31T18:45:16;11.57;;;8.90;;
12363;SDS011;6246;50.826;4.712;2022-12-31T18:47:43;15.70;;;9.80;;
12363;SDS011;6246;50.826;4.712;2022-12-31T18:50:15;13.97;;;9.47;;
12363;SDS011;6246;50.826;4.712;2022-12-31T18:52:42;12.70;;;9.67;;
12363;SDS011;6246;50.826;4.712;2022-12-31T18:55:12;13.37;;;9.40;;
12363;SDS011;6246;50.826;4.712;2022-12-31T18:57:43;16.30;;;9.80;;
12363;SDS011;6246;50.826;4.712;2022-12-31T19:00:10;12.30;;;9.10;;
12363;SDS011;6246;50.826;4.712;2022-12-31T19:02:36;12.37;;;9.10;;
12363;SDS011;6246;50.826;4.712;2022-12-31T19:05:08;16.00;;;9.97;;
12363;SDS011;6246;50.826;4.712;2022-12-31T19:07:37;13.33;;;9.20;;
12363;SDS011;6246;50.826;4.712;2022-12-31T19:10:03;14.40;;;9.20;;
12363;SDS011;6246;50.826;4.712;2022-12-31T19:12:30;13.57;;;9.57;;
12363;SDS011;6246;50.826;4.712;2022-12-31T19:14:56;10.90;;;8.40;;
12363;SDS011;6246;50.826;4.712;2022-12-31T19:17:22;12.77;;;8.60;;